Flight Track Log - Related Links

Times and Time Zones

All times are in EDT time to prevent confusion due to time zone crossing. See the DAL3759 flight status page for this flight to view local times or setup timezone preferences in your user account.

Time Position Orientation Groundspeed Altitude Reporting Facility
EDT Latitude Longitude Course Direction KTS MPH feet Rate Location/Type
Mon 10:07:33 AM 33.6500 -84.3833 320° Northwest 150 173 2,500  Level Atlanta TRACON
Mon 10:08:33 AM 33.6667 -84.3167 73° East 225 259 3,900 1,632 Climbing Atlanta TRACON
Mon 10:09:27 AM 33.6667 -84.2500 90° East 265 305 5,600 2,474 Climbing Atlanta TRACON
Mon 10:10:27 AM 33.7167 -84.2000 40° Northeast 307 353 8,600 2,762 Climbing Atlanta TRACON
Mon 10:11:00 AM 33.8684 -84.2017 320° Northwest  Level FlightAware Approximate
Mon 10:11:33 AM 33.8167 -84.2333 345° North 295 339 11,400  Level Atlanta TRACON
Mon 10:12:00 AM 33.9315 -84.2648 320° Northwest  Level FlightAware Approximate
Mon 10:12:27 AM 33.8833 -84.2667 337° Northwest 315 362 13,000  Level Atlanta TRACON
Mon 10:14:53 AM 34.1214 -84.3675 341° North 384 442 13,100 29 Climbing Atlanta Center
Mon 10:15:53 AM 34.2258 -84.4006 345° North 384 442 13,100 -50 Level Atlanta Center
Mon 10:16:53 AM 34.3342 -84.4236 350° North 384 442 13,000 -50 Descending Atlanta Center
Mon 10:17:53 AM 34.4469 -84.4217 North 389 448 13,000  Level Atlanta Center
Mon 10:18:53 AM 34.5597 -84.4147 North 401 461 13,000  Level Atlanta Center
Mon 10:19:53 AM 34.6703 -84.4125 North 401 461 13,000  Level Atlanta Center
Mon 10:20:53 AM 34.7808 -84.4106 North 401 461 13,000  Level Atlanta Center
Mon 10:21:53 AM 34.8978 -84.4086 North 408 470 13,000  Level Atlanta Center
Mon 10:22:53 AM 34.9936 -84.4089 360° North 401 461 13,000 -500 Level Atlanta Center
Mon 10:23:53 AM 35.1003 -84.3789 13° North 401 461 12,000 -950 Descending Atlanta Center
Mon 10:24:53 AM 35.1964 -84.3286 23° Northeast 383 441 11,100 -500 Descending Atlanta Center
Mon 10:25:53 AM 35.2944 -84.2728 25° Northeast 378 435 11,000 -350 Descending Atlanta Center
Mon 10:26:53 AM 35.3886 -84.2247 23° Northeast 372 428 10,400 -1,050 Descending Atlanta Center
Mon 10:27:53 AM 35.4636 -84.1867 22° Northeast 329 379 8,900 -1,550 Descending Atlanta Center
Mon 10:28:53 AM 35.5306 -84.1486 25° Northeast 286 329 7,300 -1,650 Descending Atlanta Center
Mon 10:29:53 AM 35.5994 -84.1281 14° North 259 298 5,600 -1,700 Descending Atlanta Center

Login

Don't have an account? Register now (free) for customized features, flight alerts, and more!